createdAt,value
2023-04-10T00:01:38.701Z,27.57
2023-04-10T00:03:41.533Z,27.00
2023-04-10T00:05:43.853Z,28.60
2023-04-10T00:07:45.902Z,28.77
2023-04-10T00:09:48.131Z,29.57
2023-04-10T00:11:50.416Z,30.17
2023-04-10T00:13:53.562Z,29.50
2023-04-10T00:15:55.830Z,30.00
2023-04-10T00:17:57.884Z,28.83
2023-04-10T00:19:59.992Z,29.23
2023-04-10T00:22:02.209Z,28.87
2023-04-10T00:24:04.781Z,28.10
2023-04-10T00:26:07.112Z,29.00
2023-04-10T00:28:09.283Z,26.97
2023-04-10T00:30:11.578Z,28.53
2023-04-10T00:32:13.901Z,29.30
2023-04-10T00:34:16.463Z,26.53
2023-04-10T00:36:19.324Z,28.50
2023-04-10T00:38:21.564Z,27.00
2023-04-10T00:40:23.588Z,26.60
2023-04-10T00:42:25.625Z,25.50
2023-04-10T00:44:27.686Z,26.07
2023-04-10T00:46:31.268Z,26.17
2023-04-10T00:48:34.152Z,26.13
2023-04-10T00:50:36.624Z,24.17
2023-04-10T00:52:38.866Z,24.93
2023-04-10T00:54:40.950Z,24.73
2023-04-10T00:56:44.058Z,25.80
2023-04-10T00:58:46.344Z,24.50
2023-04-10T01:00:48.364Z,24.90
2023-04-10T01:02:50.617Z,24.90
2023-04-10T01:04:52.800Z,22.63
2023-04-10T01:07:15.244Z,23.00
2023-04-10T01:09:35.884Z,24.43
2023-04-10T01:12:09.667Z,22.20
2023-04-10T01:14:14.877Z,22.70
2023-04-10T01:16:27.138Z,21.50
2023-04-10T01:18:42.359Z,22.33
2023-04-10T01:20:45.508Z,21.03
2023-04-10T01:23:19.301Z,20.57
2023-04-10T01:25:44.940Z,21.23
2023-04-10T01:27:57.400Z,21.60
2023-04-10T01:30:01.872Z,20.50
2023-04-10T01:32:10.507Z,20.33
2023-04-10T01:34:18.155Z,20.60
2023-04-10T01:36:25.012Z,21.40
2023-04-10T01:38:29.253Z,20.10
2023-04-10T01:40:31.891Z,20.47
2023-04-10T01:42:37.683Z,18.63
2023-04-10T01:44:42.934Z,18.80
2023-04-10T01:46:46.741Z,18.87
2023-04-10T01:48:50.314Z,19.20
2023-04-10T01:50:52.518Z,18.30
2023-04-10T01:52:54.930Z,18.30
2023-04-10T01:54:59.557Z,17.13
2023-04-10T01:57:12.164Z,17.50
2023-04-10T01:59:24.373Z,19.60
2023-04-10T02:01:29.807Z,18.53
2023-04-10T02:03:33.637Z,18.07
2023-04-10T02:05:50.428Z,17.67
2023-04-10T02:08:17.002Z,18.77
2023-04-10T02:10:25.341Z,19.27
2023-04-10T02:12:32.561Z,19.03
2023-04-10T02:14:37.332Z,19.87
2023-04-10T02:16:39.549Z,18.00
2023-04-10T02:18:42.546Z,18.53
2023-04-10T02:20:45.006Z,19.23
2023-04-10T02:22:48.797Z,19.70
2023-04-10T02:24:50.951Z,18.13
2023-04-10T02:26:53.470Z,17.90
2023-04-10T02:28:55.913Z,18.33
2023-04-10T02:30:57.973Z,19.37
2023-04-10T02:33:00.346Z,19.23
2023-04-10T02:35:04.721Z,19.80
2023-04-10T02:37:06.801Z,18.90
2023-04-10T02:39:09.300Z,17.70
2023-04-10T02:41:20.896Z,17.70
2023-04-10T02:43:23.174Z,17.53
2023-04-10T02:45:25.564Z,17.40
2023-04-10T02:47:27.664Z,17.33
2023-04-10T02:49:30.068Z,18.07
2023-04-10T02:51:37.222Z,17.70
2023-04-10T02:53:40.003Z,16.87
2023-04-10T02:55:42.670Z,16.77
2023-04-10T02:57:44.743Z,17.70
2023-04-10T02:59:50.713Z,15.60
2023-04-10T03:01:52.874Z,16.77
2023-04-10T03:03:55.763Z,17.40
2023-04-10T03:06:09.380Z,15.50
2023-04-10T03:08:13.320Z,15.53
2023-04-10T03:10:15.499Z,16.23
2023-04-10T03:12:18.633Z,15.07
2023-04-10T03:14:20.974Z,16.20
2023-04-10T03:16:23.296Z,14.93
2023-04-10T03:18:25.553Z,15.87
2023-04-10T03:20:29.695Z,17.97
2023-04-10T03:22:33.202Z,17.57
2023-04-10T03:24:35.716Z,17.70
2023-04-10T03:26:37.993Z,17.57
2023-04-10T03:28:41.478Z,20.00
2023-04-10T03:30:45.312Z,20.07
2023-04-10T03:32:47.357Z,20.17
2023-04-10T03:34:49.375Z,18.57
2023-04-10T03:36:51.576Z,19.40
2023-04-10T03:38:53.599Z,18.50
2023-04-10T03:40:55.736Z,19.30
2023-04-10T03:42:59.728Z,18.00
2023-04-10T03:45:06.267Z,18.43
2023-04-10T03:47:08.365Z,19.70
2023-04-10T03:49:10.661Z,18.87
2023-04-10T03:51:12.833Z,18.67
2023-04-10T03:53:15.389Z,17.87
2023-04-10T03:55:20.387Z,19.67
2023-04-10T03:57:23.963Z,19.60
2023-04-10T03:59:38.212Z,21.53
2023-04-10T04:01:44.265Z,19.50
2023-04-10T04:03:46.783Z,19.33
2023-04-10T04:06:15.338Z,19.80
2023-04-10T04:08:39.217Z,18.17
2023-04-10T04:10:52.987Z,19.20
2023-04-10T04:13:07.593Z,19.67
2023-04-10T04:15:15.946Z,23.10
2023-04-10T04:17:49.920Z,22.03
2023-04-10T04:20:16.674Z,22.97
2023-04-10T04:22:18.893Z,28.33
2023-04-10T04:24:42.658Z,29.63
2023-04-10T04:26:54.983Z,28.97
2023-04-10T04:29:23.216Z,26.30
2023-04-10T04:31:57.602Z,23.27
2023-04-10T04:34:18.444Z,21.53
2023-04-10T04:36:40.879Z,20.20
2023-04-10T04:39:06.131Z,19.60
2023-04-10T04:41:26.775Z,22.10
2023-04-10T04:43:55.788Z,21.50
2023-04-10T04:46:11.625Z,20.50
2023-04-10T04:48:35.543Z,21.03
2023-04-10T04:51:16.226Z,19.90
2023-04-10T04:53:38.087Z,22.37
2023-04-10T04:55:50.671Z,22.20
2023-04-10T04:58:11.958Z,22.83
2023-04-10T05:00:27.053Z,23.30
2023-04-10T05:02:46.706Z,21.80
2023-04-10T05:05:07.053Z,19.70
2023-04-10T05:07:20.010Z,20.30
2023-04-10T05:09:21.977Z,20.37
2023-04-10T05:11:51.414Z,22.20
2023-04-10T05:14:16.529Z,21.87
2023-04-10T05:16:38.818Z,24.47
2023-04-10T05:18:53.177Z,26.50
2023-04-10T05:21:16.169Z,25.80
2023-04-10T05:23:56.694Z,26.53
2023-04-10T05:26:06.969Z,27.80
2023-04-10T05:28:25.017Z,25.60
2023-04-10T05:30:45.667Z,23.80
2023-04-10T05:33:13.490Z,25.23
2023-04-10T05:35:15.735Z,24.23
2023-04-10T05:37:31.494Z,22.90
2023-04-10T05:39:39.037Z,21.73
2023-04-10T05:41:48.145Z,22.33
2023-04-10T05:44:08.415Z,23.03
2023-04-10T05:46:30.743Z,22.33
2023-04-10T05:49:01.925Z,22.13
2023-04-10T05:51:42.743Z,21.10
2023-04-10T05:53:57.939Z,21.83
2023-04-10T05:56:16.764Z,22.60
2023-04-10T05:58:37.230Z,19.50
2023-04-10T06:00:58.020Z,22.03
2023-04-10T06:03:17.079Z,22.53
2023-04-10T06:05:28.805Z,22.47
2023-04-10T06:07:35.471Z,20.77
2023-04-10T06:09:41.563Z,20.93
2023-04-10T06:11:45.738Z,20.30
2023-04-10T06:13:51.395Z,20.13
2023-04-10T06:15:54.969Z,19.57
2023-04-10T06:17:57.121Z,18.80
2023-04-10T06:20:01.068Z,18.53
2023-04-10T06:22:03.733Z,19.13
2023-04-10T06:24:06.523Z,17.70
2023-04-10T06:26:08.669Z,18.60
2023-04-10T06:28:10.898Z,18.30
2023-04-10T06:30:13.393Z,19.83
2023-04-10T06:32:16.346Z,18.80
2023-04-10T06:34:18.413Z,18.80
2023-04-10T06:36:36.800Z,18.27
2023-04-10T06:38:41.442Z,18.83
2023-04-10T06:40:43.453Z,19.77
2023-04-10T06:42:45.561Z,18.73
2023-04-10T06:44:51.095Z,18.60
2023-04-10T06:46:53.464Z,20.07
2023-04-10T06:48:55.734Z,19.50
2023-04-10T06:51:00.476Z,20.17
2023-04-10T06:53:02.599Z,20.77
2023-04-10T06:55:05.589Z,20.03
2023-04-10T06:57:07.602Z,21.23
2023-04-10T06:59:09.596Z,20.00
2023-04-10T07:01:11.686Z,19.50
2023-04-10T07:03:13.805Z,20.90
2023-04-10T07:05:16.222Z,18.83
2023-04-10T07:07:19.340Z,19.80
2023-04-10T07:09:21.738Z,20.93
2023-04-10T07:11:24.273Z,20.87
2023-04-10T07:13:26.387Z,19.67
2023-04-10T07:15:28.600Z,19.70
2023-04-10T07:17:30.636Z,19.17
2023-04-10T07:19:32.836Z,17.60
2023-04-10T07:21:34.915Z,20.90
2023-04-10T07:23:37.187Z,18.50
2023-04-10T07:25:41.578Z,19.23
2023-04-10T07:27:43.823Z,18.17
2023-04-10T07:29:45.902Z,20.20
2023-04-10T07:31:48.045Z,19.83
2023-04-10T07:33:50.599Z,18.80
2023-04-10T07:35:53.947Z,18.37
2023-04-10T07:37:56.231Z,18.33
2023-04-10T07:39:58.371Z,19.43
2023-04-10T07:42:00.742Z,19.20
2023-04-10T07:44:02.937Z,18.60
2023-04-10T07:46:05.573Z,18.33
2023-04-10T07:48:07.850Z,19.20
2023-04-10T07:50:10.418Z,18.33
2023-04-10T07:52:12.587Z,19.73
2023-04-10T07:54:14.787Z,18.47
2023-04-10T07:56:21.497Z,19.77
2023-04-10T07:58:23.777Z,19.40
2023-04-10T08:00:26.075Z,18.30
2023-04-10T08:02:28.609Z,18.83
2023-04-10T08:04:31.221Z,17.27
2023-04-10T08:06:33.577Z,18.83
2023-04-10T08:08:40.909Z,18.50
2023-04-10T08:10:43.133Z,18.03
2023-04-10T08:12:45.434Z,16.87
2023-04-10T08:14:47.660Z,18.40
2023-04-10T08:16:49.878Z,19.10
2023-04-10T08:18:56.831Z,19.37
2023-04-10T08:20:59.224Z,17.83
2023-04-10T08:23:16.550Z,16.97
2023-04-10T08:25:22.375Z,15.80
2023-04-10T08:27:24.603Z,16.53
2023-04-10T08:29:26.788Z,18.13
2023-04-10T08:31:29.546Z,16.43
2023-04-10T08:33:31.894Z,16.40
2023-04-10T08:35:34.097Z,15.60
2023-04-10T08:37:36.338Z,15.57
2023-04-10T08:39:39.051Z,16.97
2023-04-10T08:41:41.542Z,15.07
2023-04-10T08:43:45.755Z,15.47
2023-04-10T08:45:48.120Z,14.77
2023-04-10T08:47:52.807Z,14.67
2023-04-10T08:49:57.432Z,14.87
2023-04-10T08:52:00.599Z,14.27
2023-04-10T08:54:07.093Z,13.47
2023-04-10T08:56:14.201Z,14.00
2023-04-10T08:58:19.172Z,15.10
2023-04-10T09:02:43.890Z,13.90
2023-04-10T09:04:54.633Z,15.27
2023-04-10T09:06:57.131Z,15.20
2023-04-10T09:09:02.998Z,15.07
2023-04-10T09:11:05.857Z,16.57
2023-04-10T09:13:07.986Z,13.77
2023-04-10T09:15:10.418Z,15.07
2023-04-10T09:17:20.354Z,14.50
2023-04-10T09:19:32.486Z,14.33
2023-04-10T09:21:34.738Z,12.07
2023-04-10T09:23:37.142Z,11.70
2023-04-10T09:25:39.524Z,11.70
2023-04-10T09:27:42.466Z,12.40
2023-04-10T09:29:48.541Z,12.73
2023-04-10T09:31:51.040Z,11.30
2023-04-10T09:34:07.744Z,12.03
2023-04-10T09:36:13.757Z,12.50
2023-04-10T09:38:17.119Z,13.13
2023-04-10T09:40:21.479Z,12.80
2023-04-10T09:42:35.447Z,12.87
2023-04-10T09:44:39.420Z,12.27
2023-04-10T09:46:42.180Z,13.00
2023-04-10T09:48:56.948Z,12.60
2023-04-10T09:50:59.209Z,14.00
2023-04-10T09:53:01.449Z,13.53
2023-04-10T09:55:05.215Z,14.80
2023-04-10T09:57:08.366Z,13.60
2023-04-10T09:59:11.253Z,12.60
2023-04-10T10:01:13.468Z,14.10
2023-04-10T10:03:17.745Z,12.70
2023-04-10T10:05:20.961Z,12.60
2023-04-10T10:07:24.226Z,14.80
2023-04-10T10:09:29.420Z,13.70
2023-04-10T10:11:35.118Z,15.30
2023-04-10T10:13:42.073Z,15.30
2023-04-10T10:15:54.950Z,15.20
2023-04-10T10:18:21.653Z,14.73
2023-04-10T10:20:25.591Z,14.23
2023-04-10T10:22:28.880Z,14.00
2023-04-10T10:24:31.839Z,15.20
2023-04-10T10:26:35.018Z,16.13
2023-04-10T10:28:38.095Z,16.10
2023-04-10T10:30:40.575Z,15.40
2023-04-10T10:32:42.893Z,13.80
2023-04-10T10:34:46.110Z,15.17
2023-04-10T10:36:48.515Z,15.67
2023-04-10T10:39:01.694Z,14.60
2023-04-10T10:41:21.736Z,11.70
2023-04-10T10:43:42.441Z,14.37
2023-04-10T10:45:58.677Z,13.30
2023-04-10T10:48:00.941Z,14.33
2023-04-10T10:50:04.104Z,12.47
2023-04-10T10:52:06.367Z,12.07
2023-04-10T10:54:29.887Z,11.03
2023-04-10T10:56:35.568Z,11.87
2023-04-10T10:58:48.090Z,11.83
2023-04-10T11:00:50.470Z,10.17
2023-04-10T11:03:08.089Z,9.33
2023-04-10T11:05:10.933Z,11.30
2023-04-10T11:07:13.825Z,11.37
2023-04-10T11:09:48.801Z,11.10
2023-04-10T11:11:59.138Z,10.50
2023-04-10T11:14:01.192Z,10.30
2023-04-10T11:16:05.462Z,10.43
2023-04-10T11:18:07.712Z,11.17
2023-04-10T11:20:09.999Z,10.80
2023-04-10T11:22:15.518Z,10.13
2023-04-10T11:24:17.792Z,9.43
2023-04-10T11:26:34.912Z,10.40
2023-04-10T11:28:37.932Z,10.90
2023-04-10T11:30:41.190Z,9.60
2023-04-10T11:32:43.929Z,9.90
2023-04-10T11:34:46.316Z,10.00
2023-04-10T11:36:48.609Z,10.10
2023-04-10T11:39:05.895Z,9.20
2023-04-10T11:41:08.229Z,10.50
2023-04-10T11:43:19.138Z,10.63
2023-04-10T11:45:26.471Z,8.60
2023-04-10T11:47:28.822Z,9.90
2023-04-10T11:49:32.884Z,10.20
2023-04-10T11:51:36.176Z,8.60
2023-04-10T11:53:39.395Z,9.07
2023-04-10T11:55:41.557Z,8.73
2023-04-10T11:57:45.472Z,9.70
2023-04-10T11:59:50.430Z,9.20
2023-04-10T12:01:56.290Z,8.70
2023-04-10T12:03:58.814Z,10.00
2023-04-10T12:06:01.252Z,9.10
2023-04-10T12:08:03.578Z,9.20
2023-04-10T12:10:07.158Z,9.40
2023-04-10T12:12:09.560Z,10.00
2023-04-10T12:14:11.726Z,8.90
2023-04-10T12:16:14.504Z,9.27
2023-04-10T12:18:16.756Z,9.40
2023-04-10T12:20:19.006Z,9.10
2023-04-10T12:22:21.473Z,9.00
2023-04-10T12:24:44.880Z,8.10
2023-04-10T12:26:49.379Z,8.30
2023-04-10T12:28:57.717Z,9.23
2023-04-10T12:31:00.169Z,9.47
2023-04-10T12:33:05.951Z,9.40
2023-04-10T12:35:08.549Z,9.10
2023-04-10T12:37:10.756Z,9.40
2023-04-10T12:39:23.403Z,9.73
2023-04-10T12:41:27.456Z,9.50
2023-04-10T12:43:37.019Z,9.10
2023-04-10T12:45:43.801Z,9.50
2023-04-10T12:47:48.064Z,10.10
2023-04-10T12:50:14.337Z,9.17
2023-04-10T12:52:22.960Z,8.50
2023-04-10T12:54:30.519Z,8.87
2023-04-10T12:56:47.615Z,8.20
2023-04-10T12:58:49.759Z,9.50
2023-04-10T13:00:51.914Z,8.37
2023-04-10T13:02:54.578Z,9.40
2023-04-10T13:04:57.226Z,9.37
2023-04-10T13:06:59.500Z,10.00
2023-04-10T13:09:02.286Z,10.00
2023-04-10T13:11:04.637Z,8.80
2023-04-10T13:13:11.791Z,8.90
2023-04-10T13:15:13.974Z,9.83
2023-04-10T13:17:16.250Z,9.07
2023-04-10T13:19:18.402Z,9.80
2023-04-10T13:21:23.037Z,8.40
2023-04-10T13:23:25.347Z,8.00
2023-04-10T13:25:27.786Z,10.43
2023-04-10T13:27:29.946Z,9.47
2023-04-10T13:29:32.164Z,10.20
2023-04-10T13:31:34.405Z,9.00
2023-04-10T13:33:36.550Z,9.17
2023-04-10T13:35:40.196Z,8.87
2023-04-10T13:37:42.566Z,11.10
2023-04-10T13:39:44.805Z,15.70
2023-04-10T13:41:46.984Z,9.00
2023-04-10T13:43:49.294Z,8.03
2023-04-10T13:45:51.450Z,9.37
2023-04-10T13:47:53.772Z,9.60
2023-04-10T13:49:56.037Z,7.43
2023-04-10T13:51:58.302Z,8.20
2023-04-10T13:54:02.849Z,9.40
2023-04-10T13:56:06.006Z,8.23
2023-04-10T13:58:08.299Z,7.27
2023-04-10T14:00:11.102Z,31.30
2023-04-10T14:02:17.252Z,14.77
2023-04-10T14:04:19.688Z,19.20
2023-04-10T14:06:21.987Z,18.97
2023-04-10T14:08:24.143Z,8.50
2023-04-10T14:10:26.452Z,8.00
2023-04-10T14:12:28.723Z,10.27
2023-04-10T14:14:31.078Z,7.17
2023-04-10T14:16:33.478Z,8.30
2023-04-10T14:18:37.261Z,9.03
2023-04-10T14:20:42.366Z,8.70
2023-04-10T14:22:44.578Z,10.03
2023-04-10T14:24:46.871Z,8.40
2023-04-10T14:26:49.298Z,8.50
2023-04-10T14:28:52.345Z,10.03
2023-04-10T14:30:54.654Z,7.70
2023-04-10T14:32:57.509Z,8.07
2023-04-10T14:34:59.818Z,8.03
2023-04-10T14:37:02.664Z,9.07
2023-04-10T14:39:04.957Z,8.13
2023-04-10T14:41:07.444Z,8.63
2023-04-10T14:43:09.809Z,9.27
2023-04-10T14:45:12.015Z,9.40
2023-04-10T14:47:14.336Z,9.10
2023-04-10T14:49:16.627Z,8.40
2023-04-10T14:51:19.759Z,8.20
2023-04-10T14:53:23.075Z,9.77
2023-04-10T14:55:25.300Z,9.40
2023-04-10T14:57:29.722Z,8.80
2023-04-10T14:59:31.981Z,9.03
2023-04-10T15:01:35.942Z,8.70
2023-04-10T15:03:38.246Z,8.47
2023-04-10T15:05:40.453Z,7.97
2023-04-10T15:07:42.652Z,8.90
2023-04-10T15:09:44.903Z,7.93
2023-04-10T15:11:47.425Z,8.63
2023-04-10T15:13:49.612Z,9.70
2023-04-10T15:15:51.850Z,8.00
2023-04-10T15:17:54.212Z,9.20
2023-04-10T15:19:56.417Z,8.10
2023-04-10T15:21:58.739Z,8.50
2023-04-10T15:24:01.161Z,7.97
2023-04-10T15:26:03.590Z,9.77
2023-04-10T15:28:07.890Z,8.60
2023-04-10T15:30:11.056Z,9.50
2023-04-10T15:32:13.944Z,10.63
2023-04-10T15:34:16.142Z,8.10
2023-04-10T15:36:18.307Z,8.30
2023-04-10T15:38:20.531Z,7.90
2023-04-10T15:40:22.774Z,8.00
2023-04-10T15:42:25.003Z,7.20
2023-04-10T15:44:27.252Z,6.97
2023-04-10T15:46:32.796Z,8.17
2023-04-10T15:48:35.071Z,8.27
2023-04-10T15:50:37.644Z,7.47
2023-04-10T15:52:39.946Z,7.37
2023-04-10T15:54:43.746Z,7.63
2023-04-10T15:56:47.042Z,7.80
2023-04-10T15:58:49.199Z,6.30
2023-04-10T16:00:51.400Z,7.13
2023-04-10T16:02:53.764Z,7.20
2023-04-10T16:04:56.392Z,6.87
2023-04-10T16:06:58.954Z,6.00
2023-04-10T16:09:01.247Z,6.30
2023-04-10T16:11:03.568Z,5.13
2023-04-10T16:13:06.864Z,6.17
2023-04-10T16:15:09.509Z,5.63
2023-04-10T16:17:11.673Z,4.97
2023-04-10T16:19:13.957Z,4.80
2023-04-10T16:21:16.471Z,5.23
2023-04-10T16:23:18.626Z,4.73
2023-04-10T16:25:21.960Z,4.73
2023-04-10T16:27:24.523Z,4.90
2023-04-10T16:29:26.698Z,4.83
2023-04-10T16:31:29.008Z,5.03
2023-04-10T16:33:31.318Z,5.90
2023-04-10T16:35:33.724Z,5.70
2023-04-10T16:37:37.052Z,5.30
2023-04-10T16:39:39.644Z,5.03
2023-04-10T16:41:41.803Z,4.87
2023-04-10T16:43:44.631Z,4.77
2023-04-10T16:45:55.416Z,4.67
2023-04-10T16:47:57.736Z,5.30
2023-04-10T16:49:59.921Z,4.57
2023-04-10T16:52:02.189Z,5.07
2023-04-10T16:54:04.683Z,4.43
2023-04-10T16:56:07.072Z,4.70
2023-04-10T16:58:09.234Z,4.07
2023-04-10T17:00:11.961Z,4.60
2023-04-10T17:02:14.149Z,4.67
2023-04-10T17:04:18.834Z,4.70
2023-04-10T17:06:21.211Z,5.30
2023-04-10T17:08:23.344Z,4.83
2023-04-10T17:10:25.619Z,4.53
2023-04-10T17:12:27.812Z,5.20
2023-04-10T17:14:30.074Z,4.80
2023-04-10T17:16:32.674Z,10.63
2023-04-10T17:18:34.959Z,5.53
2023-04-10T17:20:37.338Z,5.10
2023-04-10T17:22:40.705Z,5.20
2023-04-10T17:24:43.984Z,4.50
2023-04-10T17:26:46.229Z,5.00
2023-04-10T17:28:48.485Z,5.20
2023-04-10T17:30:50.689Z,5.10
2023-04-10T17:32:53.269Z,5.63
2023-04-10T17:34:55.624Z,5.60
2023-04-10T17:36:57.888Z,6.07
2023-04-10T17:39:00.845Z,5.20
2023-04-10T17:41:04.434Z,5.37
2023-04-10T17:43:06.671Z,6.07
2023-04-10T17:45:09.163Z,5.90
2023-04-10T17:47:11.532Z,6.40
2023-04-10T17:49:13.760Z,6.33
2023-04-10T17:51:15.932Z,6.00
2023-04-10T17:53:19.143Z,5.77
2023-04-10T17:55:22.071Z,5.90
2023-04-10T17:57:24.279Z,5.63
2023-04-10T17:59:30.578Z,5.83
2023-04-10T18:01:32.959Z,5.70
2023-04-10T18:03:35.620Z,5.40
2023-04-10T18:05:39.735Z,5.57
2023-04-10T18:07:41.983Z,5.57
2023-04-10T18:09:45.465Z,5.33
2023-04-10T18:11:48.558Z,5.70
2023-04-10T18:13:50.885Z,5.70
2023-04-10T18:15:53.081Z,5.47
2023-04-10T18:17:55.519Z,5.67
2023-04-10T18:19:57.920Z,6.13
2023-04-10T18:22:00.134Z,5.60
2023-04-10T18:24:03.671Z,5.93
2023-04-10T18:26:06.004Z,5.77
2023-04-10T18:30:14.348Z,5.87
2023-04-10T18:32:16.588Z,6.00
2023-04-10T18:34:18.771Z,5.80
2023-04-10T18:36:21.608Z,5.70
2023-04-10T18:38:24.474Z,5.47
2023-04-10T18:40:26.760Z,6.10
2023-04-10T18:42:29.154Z,5.67
2023-04-10T18:44:32.175Z,5.70
2023-04-10T18:46:36.465Z,5.97
2023-04-10T18:48:47.120Z,6.10
2023-04-10T18:50:52.335Z,5.67
2023-04-10T18:52:54.648Z,5.63
2023-04-10T18:54:56.853Z,5.60
2023-04-10T18:56:58.998Z,5.20
2023-04-10T18:59:01.723Z,5.50
2023-04-10T19:01:04.148Z,6.03
2023-04-10T19:03:06.544Z,5.43
2023-04-10T19:05:10.389Z,6.27
2023-04-10T19:07:12.538Z,5.87
2023-04-10T19:09:14.776Z,5.23
2023-04-10T19:11:18.583Z,6.10
2023-04-10T19:13:20.877Z,6.03
2023-04-10T19:15:23.961Z,5.87
2023-04-10T19:17:26.167Z,6.07
2023-04-10T19:19:28.488Z,5.93
2023-04-10T19:21:31.637Z,5.80
2023-04-10T19:23:34.802Z,6.27
2023-04-10T19:25:36.998Z,5.70
2023-04-10T19:27:39.243Z,6.07
2023-04-10T19:29:41.481Z,6.43
2023-04-10T19:31:44.236Z,6.63
2023-04-10T19:33:46.572Z,5.90
2023-04-10T19:35:48.875Z,6.13
2023-04-10T19:37:51.514Z,5.73
2023-04-10T19:39:56.787Z,6.83
2023-04-10T19:41:58.968Z,5.93
2023-04-10T19:44:01.258Z,6.53
2023-04-10T19:46:03.617Z,7.23
2023-04-10T19:48:08.015Z,6.07
2023-04-10T19:50:10.623Z,6.57
2023-04-10T19:52:12.845Z,6.70
2023-04-10T19:54:15.040Z,7.03
2023-04-10T19:56:17.246Z,6.70
2023-04-10T19:58:38.897Z,7.83
2023-04-10T20:00:41.646Z,7.17
2023-04-10T20:02:44.100Z,6.53
2023-04-10T20:04:48.554Z,6.63
2023-04-10T20:06:51.630Z,7.20
2023-04-10T20:08:54.248Z,6.53
2023-04-10T20:10:58.448Z,6.87
2023-04-10T20:13:00.767Z,7.13
2023-04-10T20:15:04.252Z,7.30
2023-04-10T20:17:06.473Z,6.63
2023-04-10T20:19:08.648Z,7.20
2023-04-10T20:21:10.795Z,7.33
2023-04-10T20:23:13.075Z,7.67
2023-04-10T20:25:15.500Z,7.80
2023-04-10T20:27:17.854Z,7.60
2023-04-10T20:29:20.078Z,8.03
2023-04-10T20:31:22.292Z,7.70
2023-04-10T20:33:24.499Z,7.30
2023-04-10T20:35:26.861Z,7.77
2023-04-10T20:37:29.050Z,8.33
2023-04-10T20:39:36.053Z,8.03
2023-04-10T20:41:38.163Z,6.70
2023-04-10T20:43:40.423Z,8.50
2023-04-10T20:45:42.798Z,7.63
2023-04-10T20:47:44.929Z,8.30
2023-04-10T20:49:47.111Z,8.40
2023-04-10T20:51:49.287Z,7.23
2023-04-10T20:53:51.748Z,7.57
2023-04-10T20:55:56.675Z,7.53
2023-04-10T20:57:58.852Z,8.17
2023-04-10T21:00:01.145Z,7.97
2023-04-10T21:02:03.680Z,8.80
2023-04-10T21:04:06.267Z,8.00
2023-04-10T21:06:09.295Z,8.47
2023-04-10T21:08:12.711Z,6.90
2023-04-10T21:10:14.943Z,7.63
2023-04-10T21:12:17.244Z,8.00
2023-04-10T21:14:19.395Z,7.67
2023-04-10T21:16:21.676Z,8.50
2023-04-10T21:18:23.930Z,8.67
2023-04-10T21:20:26.222Z,7.90
2023-04-10T21:22:29.316Z,8.03
2023-04-10T21:24:31.768Z,8.37
2023-04-10T21:26:33.978Z,8.27
2023-04-10T21:28:36.291Z,8.30
2023-04-10T21:30:38.612Z,7.67
2023-04-10T21:32:40.877Z,7.93
2023-04-10T21:34:43.035Z,6.80
2023-04-10T21:36:45.353Z,7.90
2023-04-10T21:38:47.545Z,7.37
2023-04-10T21:40:55.894Z,7.33
2023-04-10T21:42:58.052Z,8.07
2023-04-10T21:45:00.635Z,7.47
2023-04-10T21:47:02.855Z,8.10
2023-04-10T21:49:05.598Z,7.60
2023-04-10T21:51:07.825Z,7.70
2023-04-10T21:53:10.122Z,7.23
2023-04-10T21:55:12.423Z,7.70
2023-04-10T21:57:14.549Z,7.70
2023-04-10T21:59:16.709Z,6.60
2023-04-10T22:01:18.879Z,7.50
2023-04-10T22:03:22.042Z,7.80
2023-04-10T22:05:24.580Z,7.77
2023-04-10T22:07:26.928Z,7.77
2023-04-10T22:09:29.194Z,7.50
2023-04-10T22:11:31.502Z,8.10
2023-04-10T22:13:33.900Z,7.60
2023-04-10T22:15:36.184Z,7.60
2023-04-10T22:17:38.364Z,8.03
2023-04-10T22:19:40.552Z,7.57
2023-04-10T22:21:42.842Z,8.20
2023-04-10T22:23:44.949Z,7.83
2023-04-10T22:25:47.217Z,7.37
2023-04-10T22:27:49.621Z,8.33
2023-04-10T22:30:02.025Z,9.73
2023-04-10T22:32:05.397Z,8.00
2023-04-10T22:34:11.021Z,8.50
2023-04-10T22:36:14.121Z,7.83
2023-04-10T22:38:16.241Z,8.90
2023-04-10T22:40:18.413Z,7.97
2023-04-10T22:42:20.336Z,7.13
2023-04-10T22:44:22.357Z,7.67
2023-04-10T22:46:24.779Z,7.63
2023-04-10T22:48:26.872Z,7.83
2023-04-10T22:50:28.855Z,7.10
2023-04-10T22:52:30.851Z,8.43
2023-04-10T22:54:33.677Z,8.13
2023-04-10T22:56:35.678Z,7.93
2023-04-10T22:58:39.457Z,7.70
2023-04-10T23:00:41.600Z,7.73
2023-04-10T23:02:47.621Z,7.60
2023-04-10T23:04:50.055Z,8.17
2023-04-10T23:06:52.174Z,7.40
2023-04-10T23:08:54.553Z,6.10
2023-04-10T23:10:56.853Z,8.40
2023-04-10T23:12:58.975Z,7.60
2023-04-10T23:15:01.244Z,8.13
2023-04-10T23:17:03.265Z,6.43
2023-04-10T23:19:05.290Z,8.07
2023-04-10T23:21:07.725Z,7.67
2023-04-10T23:23:09.763Z,8.00
2023-04-10T23:25:11.826Z,7.47
2023-04-10T23:27:13.874Z,7.30
2023-04-10T23:29:15.884Z,7.60
2023-04-10T23:31:18.017Z,8.33
2023-04-10T23:33:19.971Z,8.33
2023-04-10T23:35:22.512Z,7.43
2023-04-10T23:37:24.597Z,7.23
2023-04-10T23:39:26.689Z,7.80
2023-04-10T23:41:28.720Z,8.07
2023-04-10T23:43:30.725Z,6.93
2023-04-10T23:45:32.744Z,8.00
2023-04-10T23:47:35.071Z,7.60
2023-04-10T23:49:37.150Z,7.40
2023-04-10T23:51:40.488Z,8.07
2023-04-10T23:53:43.120Z,8.07
2023-04-10T23:55:45.510Z,7.23
2023-04-10T23:57:47.753Z,7.20
2023-04-10T23:59:49.915Z,7.07
